Time;durP1;ratioP1;P1;durP2;ratioP2;P2;SDS_P1;SDS_P2;PMS_P1;PMS_P2;Temp;Humidity;BMP_temperature;BMP_pressure;BME280_temperature;BME280_humidity;BME280_pressure;Samples;Min_cycle;Max_cycle;Signal;HPM_P1;HPM_P2
2022/10/18 03:54:17;;;;;;;17.62;9.93;;;;;;;8.44;100.00;101812.72;6571678;26;20100;-87
2022/10/18 03:57:20;;;;;;;18.30;10.05;;;;;;;8.39;100.00;101813.13;6634280;26;33970;-86
2022/10/18 04:00:23;;;;;;;22.08;10.18;;;;;;;8.31;100.00;101815.56;6633965;26;33879;-87
2022/10/18 04:03:26;;;;;;;19.23;10.07;;;;;;;8.24;100.00;101825.09;6634384;26;34782;-86
2022/10/18 04:06:28;;;;;;;19.27;10.23;;;;;;;8.21;100.00;101809.25;6634956;26;34408;-86
2022/10/18 04:09:31;;;;;;;15.32;9.60;;;;;;;8.23;100.00;101801.09;6639692;26;35069;-87
2022/10/18 04:12:33;;;;;;;18.80;10.18;;;;;;;8.17;100.00;101807.81;6653957;26;33688;-87
2022/10/18 04:15:36;;;;;;;20.70;11.57;;;;;;;8.13;100.00;101807.22;6654510;26;35396;-87
2022/10/18 04:18:39;;;;;;;24.67;12.93;;;;;;;8.09;100.00;101810.25;6647365;26;34652;-87
2022/10/18 04:21:42;;;;;;;22.37;12.70;;;;;;;8.03;100.00;101800.03;6634657;26;34436;-87
2022/10/18 04:24:44;;;;;;;20.20;12.52;;;;;;;7.93;100.00;101799.97;6633921;26;34503;-86
2022/10/18 04:27:47;;;;;;;22.77;13.20;;;;;;;7.89;100.00;101793.97;6633630;26;33920;-87
2022/10/18 04:30:53;;;;;;;21.87;12.18;;;;;;;7.95;100.00;101796.16;6634155;26;33808;-87
2022/10/18 04:33:55;;;;;;;22.23;13.38;;;;;;;7.94;100.00;101796.28;6633496;26;34889;-86
2022/10/18 04:36:58;;;;;;;19.92;12.40;;;;;;;7.93;100.00;101792.75;6613627;26;32520;-86
2022/10/18 04:40:01;;;;;;;26.37;12.70;;;;;;;7.94;100.00;101794.47;6613483;26;32658;-87
2022/10/18 04:43:03;;;;;;;22.35;12.55;;;;;;;7.94;100.00;101791.78;6633481;26;34354;-87
2022/10/18 04:46:06;;;;;;;24.10;12.68;;;;;;;8.03;100.00;101795.53;6633434;26;34666;-87
2022/10/18 04:49:08;;;;;;;24.95;11.77;;;;;;;8.12;100.00;101788.56;6613447;26;33243;-87
2022/10/18 04:52:11;;;;;;;24.40;13.18;;;;;;;8.13;100.00;101783.06;6633511;26;34026;-87
2022/10/18 04:55:14;;;;;;;22.15;12.32;;;;;;;8.13;100.00;101779.50;6633058;26;34910;-87
2022/10/18 04:58:18;;;;;;;27.55;11.77;;;;;;;8.11;100.00;101771.63;6613014;26;33719;-87
2022/10/18 05:01:21;;;;;;;21.35;11.32;;;;;;;8.09;100.00;101783.44;6634035;26;35489;-87
2022/10/18 05:04:24;;;;;;;21.40;10.70;;;;;;;8.03;100.00;101767.88;6633637;26;34398;-87
2022/10/18 05:07:26;;;;;;;21.02;11.45;;;;;;;8.06;100.00;101778.34;6636612;26;33901;-87
2022/10/18 05:10:31;;;;;;;19.50;10.45;;;;;;;8.01;100.00;101776.03;6647251;26;35444;-90
2022/10/18 05:13:33;;;;;;;21.10;11.10;;;;;;;8.02;100.00;101779.56;6637541;26;35410;-91
2022/10/18 05:16:36;;;;;;;18.65;10.90;;;;;;;8.00;100.00;101784.22;6632648;26;33879;-91
2022/10/18 05:19:39;;;;;;;18.58;10.52;;;;;;;8.00;100.00;101774.31;6634060;26;34049;-91
2022/10/18 05:22:42;;;;;;;18.62;10.57;;;;;;;8.04;100.00;101782.97;6614147;26;32908;-87
2022/10/18 05:25:45;;;;;;;21.30;11.68;;;;;;;7.95;100.00;101785.41;6633141;26;35017;-87
2022/10/18 05:28:49;;;;;;;22.35;11.50;;;;;;;7.99;100.00;101780.69;6633396;26;34637;-87
2022/10/18 05:31:51;;;;;;;26.75;10.60;;;;;;;8.06;100.00;101786.37;6633471;26;34458;-87
2022/10/18 05:34:54;;;;;;;24.95;11.32;;;;;;;8.10;100.00;101790.50;6634227;26;34049;-87
2022/10/18 05:37:57;;;;;;;27.00;11.85;;;;;;;8.05;100.00;101788.22;6633076;26;33843;-87
2022/10/18 05:41:03;;;;;;;19.52;11.18;;;;;;;8.00;100.00;101789.56;6633395;26;34620;-87
2022/10/18 05:44:06;;;;;;;20.83;11.40;;;;;;;8.10;100.00;101787.81;6633617;26;33758;-87
2022/10/18 05:47:08;;;;;;;18.17;11.18;;;;;;;8.23;100.00;101787.66;6633358;26;34463;-87
2022/10/18 05:50:11;;;;;;;18.37;10.48;;;;;;;8.20;100.00;101785.25;6633406;26;33947;-87
2022/10/18 05:53:14;;;;;;;21.42;11.30;;;;;;;8.25;100.00;101785.69;6633159;26;33546;-87
2022/10/18 05:56:38;;;;;;;20.62;11.52;;;;;;;8.28;100.00;101780.94;6633101;26;35301;-87
2022/10/18 05:59:46;;;;;;;20.45;11.80;;;;;;;8.30;100.00;101787.00;6633333;26;34427;-87
2022/10/18 06:02:48;;;;;;;21.70;11.52;;;;;;;8.46;100.00;101786.63;6634340;26;33717;-87
2022/10/18 06:05:51;;;;;;;21.62;11.93;;;;;;;8.57;100.00;101788.38;6633024;26;33904;-87
2022/10/18 06:08:54;;;;;;;19.80;11.20;;;;;;;8.72;100.00;101792.47;6633222;26;33987;-87
2022/10/18 06:11:56;;;;;;;21.37;11.15;;;;;;;8.96;100.00;101791.34;6633146;26;34735;-87
2022/10/18 06:14:59;;;;;;;16.08;9.90;;;;;;;9.13;100.00;101790.72;6633444;26;33994;-87
2022/10/18 06:18:02;;;;;;;17.55;10.98;;;;;;;9.30;100.00;101786.53;6612749;26;34458;-87
2022/10/18 06:21:04;;;;;;;17.62;10.13;;;;;;;9.48;100.00;101789.47;6612840;26;34286;-87
2022/10/18 06:24:07;;;;;;;18.45;10.25;;;;;;;9.67;100.00;101794.88;6613001;26;32605;-87
2022/10/18 06:27:10;;;;;;;16.45;10.25;;;;;;;9.77;100.00;101803.84;6633308;26;34766;-87
2022/10/18 06:30:14;;;;;;;18.27;10.85;;;;;;;9.89;100.00;101804.59;6632413;26;34537;-87
2022/10/18 06:33:16;;;;;;;23.10;10.73;;;;;;;9.99;100.00;101808.12;6632942;26;33624;-87
2022/10/18 06:36:22;;;;;;;16.48;10.60;;;;;;;10.11;100.00;101806.16;6612548;26;32876;-87
2022/10/18 06:39:25;;;;;;;24.23;10.55;;;;;;;10.22;100.00;101811.41;6632917;26;33737;-87
2022/10/18 06:42:30;;;;;;;20.23;10.55;;;;;;;10.32;100.00;101814.16;6632449;26;33944;-87
2022/10/18 06:45:33;;;;;;;16.62;10.13;;;;;;;10.42;100.00;101803.41;6632510;26;34311;-87
2022/10/18 06:48:37;;;;;;;17.23;10.55;;;;;;;10.52;100.00;101804.22;6612946;26;32257;-87
2022/10/18 06:51:43;;;;;;;19.37;11.20;;;;;;;10.69;100.00;101804.53;6632986;26;33682;-87
2022/10/18 06:54:46;;;;;;;19.08;11.65;;;;;;;10.81;100.00;101803.34;6633211;26;34057;-87
2022/10/18 06:57:48;;;;;;;20.25;10.43;;;;;;;10.97;100.00;101806.31;6633408;26;34201;-87
2022/10/18 07:00:51;;;;;;;19.08;11.27;;;;;;;11.10;100.00;101814.06;6614231;26;32416;-87
2022/10/18 07:03:54;;;;;;;20.17;11.20;;;;;;;11.13;100.00;101803.00;6633743;26;34765;-87
2022/10/18 07:06:57;;;;;;;21.48;10.90;;;;;;;11.23;100.00;101809.22;6634059;26;34195;-87
2022/10/18 07:10:00;;;;;;;20.50;11.75;;;;;;;11.48;100.00;101810.38;6614590;26;33618;-87
2022/10/18 07:13:02;;;;;;;21.33;12.02;;;;;;;11.68;100.00;101808.47;6634051;26;34879;-90
2022/10/18 07:16:25;;;;;;;18.95;11.77;;;;;;;11.77;100.00;101809.41;6634126;26;34606;-87
2022/10/18 07:19:28;;;;;;;24.58;12.25;;;;;;;11.95;100.00;101798.69;6634186;26;34516;-87
2022/10/18 07:22:30;;;;;;;21.75;11.85;;;;;;;12.08;100.00;101793.78;6613113;26;32636;-87
2022/10/18 07:25:34;;;;;;;22.70;11.77;;;;;;;12.27;99.72;101795.47;6635338;26;33665;-87
2022/10/18 07:28:36;;;;;;;20.73;13.60;;;;;;;12.46;96.09;101789.03;6616701;26;33394;-87
2022/10/18 07:31:39;;;;;;;28.80;16.75;;;;;;;12.64;94.32;101795.28;6617387;26;32161;-87
2022/10/18 07:34:42;;;;;;;30.10;19.42;;;;;;;12.79;94.00;101792.03;6634794;26;34275;-87
2022/10/18 07:37:45;;;;;;;29.83;18.55;;;;;;;12.93;93.33;101786.91;6634507;26;33874;-85
2022/10/18 07:40:47;;;;;;;25.00;16.75;;;;;;;13.06;91.65;101780.22;6646292;26;33948;-84
2022/10/18 07:43:51;;;;;;;21.08;13.65;;;;;;;13.34;89.92;101779.06;6629018;26;31571;-84
2022/10/18 07:46:54;;;;;;;26.83;16.48;;;;;;;13.34;87.29;101783.63;6626956;26;32661;-85
2022/10/18 07:50:01;;;;;;;26.65;15.65;;;;;;;13.47;86.51;101775.03;6614332;26;32235;-86
2022/10/18 07:53:03;;;;;;;31.08;21.10;;;;;;;13.64;83.38;101776.81;6613990;26;32703;-83
2022/10/18 07:56:14;;;;;;;29.87;21.52;;;;;;;13.67;83.90;101772.94;6634154;26;33854;-84
2022/10/18 07:59:17;;;;;;;25.27;13.30;;;;;;;13.84;81.46;101777.38;6621858;26;32622;-84
2022/10/18 08:02:19;;;;;;;19.35;12.32;;;;;;;14.05;80.60;101764.22;6645346;26;34317;-85
2022/10/18 08:05:23;;;;;;;18.70;11.30;;;;;;;14.19;79.07;101764.59;6633799;26;33905;-85
2022/10/18 08:08:26;;;;;;;21.48;12.18;;;;;;;14.27;79.25;101753.75;6633492;26;34749;-85
2022/10/18 08:11:29;;;;;;;24.95;12.00;;;;;;;14.43;76.35;101758.34;6634347;26;33576;-85
2022/10/18 08:14:32;;;;;;;21.02;12.32;;;;;;;14.50;76.42;101753.91;6633979;26;34375;-86
2022/10/18 08:17:34;;;;;;;19.15;11.98;;;;;;;14.66;73.50;101750.41;6633254;26;34203;-86
2022/10/18 08:20:42;;;;;;;20.08;11.07;;;;;;;14.90;71.67;101755.78;6613753;26;32404;-85
2022/10/18 08:23:46;;;;;;;19.62;12.07;;;;;;;14.96;70.08;101743.38;6633517;26;34452;-85
2022/10/18 08:26:49;;;;;;;21.27;11.57;;;;;;;15.13;70.03;101742.31;6633046;26;34377;-84
2022/10/18 08:29:52;;;;;;;21.48;11.77;;;;;;;15.19;68.87;101738.91;6613342;26;32782;-85
2022/10/18 08:32:54;;;;;;;17.33;11.77;;;;;;;15.34;69.12;101733.59;6633553;26;34114;-85
2022/10/18 08:35:59;;;;;;;21.00;11.93;;;;;;;15.57;67.63;101732.81;6633624;26;33985;-85
2022/10/18 08:39:02;;;;;;;19.73;11.82;;;;;;;15.76;67.23;101720.69;6634179;26;33633;-84
2022/10/18 08:42:38;;;;;;;20.90;12.63;;;;;;;16.01;66.40;101715.97;6613398;26;33572;-85
2022/10/18 08:45:43;;;;;;;18.33;11.55;;;;;;;16.13;65.51;101716.38;6633726;26;33989;-85
2022/10/18 08:48:52;;;;;;;19.60;11.60;;;;;;;16.13;65.50;101710.94;6612944;26;33574;-84
2022/10/18 08:51:56;;;;;;;20.98;11.30;;;;;;;16.15;67.02;101709.75;6612949;26;32184;-85
2022/10/18 08:55:16;;;;;;;18.83;11.25;;;;;;;16.51;65.33;101709.09;6613220;26;32293;-84
2022/10/18 08:58:20;;;;;;;19.50;11.52;;;;;;;16.69;64.59;101703.31;6633525;26;33966;-84
2022/10/18 09:01:23;;;;;;;16.70;9.52;;;;;;;16.83;62.32;101690.78;6632962;26;34565;-84
2022/10/18 09:04:48;;;;;;;13.62;8.20;;;;;;;16.81;60.26;101690.13;6632804;26;33881;-84
2022/10/18 09:08:10;;;;;;;10.65;7.40;;;;;;;17.03;58.46;101688.34;6632896;26;34061;-84
2022/10/18 09:11:34;;;;;;;10.10;6.20;;;;;;;17.29;56.12;101685.97;6612024;26;34565;-84
2022/10/18 09:14:46;;;;;;;10.55;6.95;;;;;;;17.41;54.32;101687.16;6633474;26;34191;-84
2022/10/18 09:18:09;;;;;;;11.50;6.37;;;;;;;17.62;54.04;101680.91;6633280;26;33638;-84
2022/10/18 09:21:21;;;;;;;9.10;6.35;;;;;;;17.63;52.86;101673.59;6632524;26;33566;-84
2022/10/18 09:24:42;;;;;;;9.48;6.45;;;;;;;17.79;52.35;101667.94;6613804;26;33113;-84
2022/10/18 09:27:53;;;;;;;10.77;6.05;;;;;;;17.79;50.83;101665.22;6634947;26;34368;-84
2022/10/18 09:31:17;;;;;;;9.70;6.18;;;;;;;18.02;52.33;101667.75;6633487;26;33692;-83
2022/10/18 09:34:49;;;;;;;9.82;6.28;;;;;;;18.01;49.59;101660.59;6633631;26;33874;-84
2022/10/18 09:37:59;;;;;;;12.37;6.25;;;;;;;18.00;48.70;101660.81;6633367;26;35037;-84
2022/10/18 09:41:12;;;;;;;10.30;6.03;;;;;;;18.01;49.20;101652.41;6634100;26;33635;-84
2022/10/18 09:44:21;;;;;;;11.07;6.40;;;;;;;18.10;49.14;101653.13;6633657;26;34752;-84
2022/10/18 09:47:43;;;;;;;7.53;5.90;;;;;;;18.26;50.88;101649.28;6633390;26;34543;-84
2022/10/18 09:50:53;;;;;;;8.55;6.00;;;;;;;18.53;49.73;101639.41;6614315;26;34098;-84
2022/10/18 09:54:18;;;;;;;14.10;7.00;;;;;;;18.59;48.96;101631.25;6614498;26;32482;-84
2022/10/18 09:57:36;;;;;;;8.38;5.78;;;;;;;18.55;48.14;101627.25;6634475;26;34290;-84
2022/10/18 10:00:47;;;;;;;10.93;6.50;;;;;;;18.76;46.69;101626.37;6614548;26;32538;-85
2022/10/18 10:03:50;;;;;;;8.65;5.90;;;;;;;18.80;47.44;101626.78;6614512;26;32430;-84
2022/10/18 10:06:55;;;;;;;9.30;6.60;;;;;;;18.97;46.15;101621.84;6612513;26;33822;-86
2022/10/18 10:10:07;;;;;;;9.32;6.35;;;;;;;19.01;45.85;101610.34;6633474;26;33903;-85
2022/10/18 10:13:25;;;;;;;10.40;6.10;;;;;;;19.05;47.29;101605.31;6633449;26;33617;-85
2022/10/18 10:16:28;;;;;;;7.87;5.57;;;;;;;19.23;45.24;101600.13;6633456;26;34597;-85
2022/10/18 10:19:37;;;;;;;7.30;5.62;;;;;;;19.32;45.93;101597.22;6617272;26;32301;-85
2022/10/18 10:22:41;;;;;;;9.75;6.12;;;;;;;19.33;45.08;101596.97;6652286;26;34430;-86
2022/10/18 10:25:50;;;;;;;7.80;5.47;;;;;;;19.51;44.36;101584.62;6634372;26;33659;-86
2022/10/18 10:28:56;;;;;;;7.50;5.50;;;;;;;19.35;43.31;101581.25;6633455;26;34715;-85
2022/10/18 10:32:03;;;;;;;11.05;5.40;;;;;;;19.49;42.93;101576.66;6615546;26;32674;-85
2022/10/18 10:35:28;;;;;;;6.80;5.07;;;;;;;19.31;42.96;101579.16;6635173;26;34013;-86
2022/10/18 10:39:15;;;;;;;9.60;5.07;;;;;;;19.29;44.67;101573.03;6616709;26;33823;-86
2022/10/18 10:42:18;;;;;;;7.00;4.70;;;;;;;19.68;41.67;101569.56;6637433;26;34445;-86
2022/10/18 10:45:22;;;;;;;7.50;4.78;;;;;;;19.76;42.13;101561.16;6644207;26;34619;-86
2022/10/18 10:48:27;;;;;;;6.12;4.68;;;;;;;19.88;41.00;101548.53;6616791;26;32632;-86
2022/10/18 10:51:37;;;;;;;5.80;4.25;;;;;;;20.06;41.43;101547.88;6648268;26;33692;-84
2022/10/18 10:54:43;;;;;;;6.75;4.43;;;;;;;20.13;39.31;101548.75;6638587;26;33984;-84
2022/10/18 10:57:55;;;;;;;6.70;4.15;;;;;;;20.31;39.68;101545.34;6634949;26;34155;-84
2022/10/18 11:01:17;;;;;;;6.05;4.32;;;;;;;20.74;38.28;101538.53;6634330;26;33696;-84
2022/10/18 11:04:30;;;;;;;6.53;3.90;;;;;;;20.79;38.08;101538.69;6612617;26;32870;-84
2022/10/18 11:07:43;;;;;;;7.15;4.07;;;;;;;21.32;36.33;101535.66;6633888;26;34149;-84
2022/10/18 11:11:12;;;;;;;6.18;4.00;;;;;;;21.78;35.19;101525.44;6635080;26;33592;-84
2022/10/18 11:14:22;;;;;;;4.78;3.72;;;;;;;21.94;37.09;101520.25;6649586;26;34123;-85
2022/10/18 11:17:58;;;;;;;7.10;4.00;;;;;;;22.32;34.95;101516.50;6641058;26;34256;-89
2022/10/18 11:21:14;;;;;;;6.18;3.90;;;;;;;22.93;34.53;101508.34;6635370;26;34795;-85
2022/10/18 11:24:17;;;;;;;8.70;4.25;;;;;;;23.58;33.99;101508.47;6634175;26;34069;-85
2022/10/18 11:27:41;;;;;;;6.43;3.80;;;;;;;24.02;32.22;101494.41;6634712;26;33762;-84
2022/10/18 11:30:49;;;;;;;7.68;3.78;;;;;;;24.60;30.77;101497.09;6625581;26;281994;-85
2022/10/18 11:34:19;;;;;;;6.18;3.83;;;;;;;24.53;31.34;101493.63;6634306;26;34807;-85
2022/10/18 11:37:47;;;;;;;5.25;4.10;;;;;;;25.24;30.02;101485.94;6614501;26;33667;-84
2022/10/18 11:41:29;;;;;;;7.62;4.12;;;;;;;26.30;29.81;101476.00;6634174;26;34051;-85
2022/10/18 11:44:48;;;;;;;5.37;3.83;;;;;;;26.68;28.66;101469.59;6613262;26;33100;-88
2022/10/18 11:48:12;;;;;;;6.78;4.12;;;;;;;27.72;26.35;101471.13;6634922;26;33556;-85
2022/10/18 11:51:20;;;;;;;8.05;3.90;;;;;;;29.79;24.69;101459.28;6634547;26;34906;-85
2022/10/18 11:55:02;;;;;;;6.07;3.58;;;;;;;29.77;24.54;101457.91;6634574;26;33506;-85
2022/10/18 11:58:30;;;;;;;5.62;3.65;;;;;;;31.82;21.93;101447.25;6614906;26;32771;-85
2022/10/18 12:02:10;;;;;;;7.05;3.83;;;;;;;32.71;20.72;101438.38;6634957;26;33718;-85
2022/10/18 12:05:14;;;;;;;4.85;3.37;;;;;;;31.66;21.48;101434.63;6634490;26;33901;-85
2022/10/18 12:08:30;;;;;;;4.90;3.30;;;;;;;32.37;22.05;101424.59;6613954;26;33268;-90
2022/10/18 12:11:43;;;;;;;6.37;3.45;;;;;;;34.35;20.41;101424.31;6635084;26;34114;-86
2022/10/18 12:14:49;;;;;;;6.05;3.28;;;;;;;34.71;18.93;101417.94;6634344;26;34063;-86
2022/10/18 12:18:00;;;;;;;4.35;3.40;;;;;;;34.79;19.62;101407.97;6634197;26;34249;-86
2022/10/18 12:21:05;;;;;;;6.40;3.33;;;;;;;34.05;19.10;101412.66;6635191;26;34372;-85
2022/10/18 12:24:14;;;;;;;8.98;3.25;;;;;;;35.51;17.68;101390.16;6617400;26;32653;-85
2022/10/18 12:27:22;;;;;;;6.45;3.25;;;;;;;35.53;17.87;101399.09;6640022;26;33557;-85
2022/10/18 12:30:46;;;;;;;4.32;3.20;;;;;;;35.83;17.11;101391.81;6640499;26;35523;-85
2022/10/18 12:33:54;;;;;;;4.12;3.45;;;;;;;35.36;17.27;101395.03;6647833;26;34767;-85
2022/10/18 12:37:15;;;;;;;6.95;3.53;;;;;;;34.26;18.74;101381.47;6641755;26;34701;-85
2022/10/18 12:40:24;;;;;;;5.53;3.47;;;;;;;32.26;19.93;101376.56;6634991;26;34576;-85
2022/10/18 12:43:35;;;;;;;5.90;3.65;;;;;;;30.38;23.04;101373.56;6634126;26;34604;-85
2022/10/18 12:46:58;;;;;;;5.53;3.78;;;;;;;27.92;25.89;101365.28;6634478;26;33566;-85
2022/10/18 12:50:07;;;;;;;6.22;3.58;;;;;;;25.84;27.93;101357.56;6634381;26;34398;-85
2022/10/18 12:53:17;;;;;;;5.35;3.67;;;;;;;24.24;30.63;101365.28;6634805;26;34227;-89
2022/10/18 12:56:26;;;;;;;5.37;3.62;;;;;;;23.46;31.44;101356.44;6643326;26;34257;-89
2022/10/18 12:59:28;;;;;;;;;;;;;;;22.78;32.89;101352.25;6653504;26;35439;-85
2022/10/18 13:02:32;;;;;;;7.50;3.85;;;;;;;22.30;33.85;101348.53;6625159;26;37073;-85
2022/10/18 13:06:01;;;;;;;5.35;4.07;;;;;;;21.86;34.25;101345.06;6613709;26;33280;-84
2022/10/18 13:09:16;;;;;;;5.97;3.80;;;;;;;21.69;34.94;101346.72;6613170;26;32872;-84
2022/10/18 13:12:18;;;;;;;4.57;3.72;;;;;;;21.56;35.48;101335.91;6634580;26;34656;-84
2022/10/18 13:15:51;;;;;;;7.60;3.90;;;;;;;21.31;36.71;101336.75;6634095;26;33960;-84
2022/10/18 13:19:07;;;;;;;6.15;3.83;;;;;;;21.27;36.12;101333.62;6634258;26;34061;-83
2022/10/18 13:22:29;;;;;;;6.15;3.30;;;;;;;21.09;35.59;101330.88;6615566;26;33744;-84
2022/10/18 13:25:48;;;;;;;7.68;3.95;;;;;;;20.97;35.55;101332.63;6648689;26;33882;-84
2022/10/18 13:29:27;;;;;;;6.30;3.72;;;;;;;20.76;36.56;101331.13;6646251;26;35443;-83
2022/10/18 13:32:46;;;;;;;7.47;3.43;;;;;;;20.57;36.08;101322.84;6613966;26;32618;-83
2022/10/18 13:35:56;;;;;;;5.35;3.62;;;;;;;20.49;36.27;101324.97;6613231;26;32700;-83
2022/10/18 13:39:02;;;;;;;7.72;3.40;;;;;;;20.36;35.23;101325.91;6634300;26;34168;-85
2022/10/18 13:42:14;;;;;;;4.15;3.50;;;;;;;20.37;34.84;101330.31;6613588;26;32519;-85
2022/10/18 13:45:31;;;;;;;4.55;3.25;;;;;;;20.42;35.29;101340.56;6634713;26;34388;-84
2022/10/18 13:48:34;;;;;;;8.45;3.42;;;;;;;20.20;35.65;101334.59;6614474;26;33148;-84
2022/10/18 13:51:45;;;;;;;4.12;3.03;;;;;;;20.13;36.32;101331.91;6637522;26;34393;-84
2022/10/18 13:55:12;;;;;;;4.95;3.30;;;;;;;19.95;36.24;101321.69;6649170;26;34997;-82
2022/10/18 13:58:52;;;;;;;6.47;3.40;;;;;;;19.89;36.10;101317.06;6627709;26;34211;-83
2022/10/18 14:02:40;;;;;;;3.62;3.33;;;;;;;19.73;37.79;101321.13;6634403;26;34446;-84
2022/10/18 14:06:01;;;;;;;6.30;3.47;;;;;;;19.75;37.80;101310.00;6615631;26;33537;-84
2022/10/18 14:09:13;;;;;;;4.20;3.30;;;;;;;19.75;37.70;101301.81;6635595;26;34638;-84
2022/10/18 14:12:43;;;;;;;10.25;3.75;;;;;;;19.56;38.77;101306.22;6616153;26;32651;-84
2022/10/18 14:15:50;;;;;;;5.10;3.25;;;;;;;19.49;38.90;101300.78;6636614;26;34457;-84
2022/10/18 14:18:59;;;;;;;;;;;;;;;19.35;39.74;101301.87;6615891;26;33255;-84
2022/10/18 14:22:19;;;;;;;4.47;3.15;;;;;;;19.33;39.09;101291.16;6615548;26;34805;-84
2022/10/18 14:25:29;;;;;;;6.53;3.17;;;;;;;19.22;38.35;101292.66;6615965;26;32550;-83
2022/10/18 14:28:32;;;;;;;4.90;3.22;;;;;;;19.31;38.30;101295.16;6617114;26;32937;-83
2022/10/18 14:31:56;;;;;;;5.85;3.42;;;;;;;19.28;39.16;101287.41;6616938;26;33910;-88
2022/10/18 14:34:59;;;;;;;5.93;3.62;;;;;;;19.26;39.53;101291.16;6617480;26;32992;-84
2022/10/18 14:38:23;;;;;;;10.90;3.95;;;;;;;19.16;39.98;101288.06;6627955;26;33150;-83
2022/10/18 14:41:31;;;;;;;5.07;3.45;;;;;;;19.05;40.31;101280.50;6628648;26;33492;-82
2022/10/18 14:44:34;;;;;;;5.05;3.15;;;;;;;18.93;40.58;101277.56;6635621;26;33953;-83
2022/10/18 14:47:38;;;;;;;5.43;3.75;;;;;;;18.88;40.82;101271.91;6616564;26;32811;-83
2022/10/18 14:50:44;;;;;;;6.93;3.30;;;;;;;18.77;41.07;101267.06;6628228;26;33396;-83
2022/10/18 14:53:48;;;;;;;5.55;3.67;;;;;;;18.83;41.07;101266.22;6651326;26;35410;-83
2022/10/18 14:56:51;;;;;;;8.48;3.50;;;;;;;18.86;40.09;101262.25;6629272;26;32940;-83
2022/10/18 15:00:01;;;;;;;7.37;4.00;;;;;;;18.94;40.27;101254.69;6636191;26;35056;-83
2022/10/18 15:03:10;;;;;;;6.57;3.53;;;;;;;19.02;40.16;101253.63;6641725;26;34525;-83
2022/10/18 15:06:19;;;;;;;6.90;3.50;;;;;;;18.93;40.17;101244.84;6640051;26;33924;-83
2022/10/18 15:09:23;;;;;;;6.75;3.60;;;;;;;18.75;40.98;101247.37;6637261;26;33686;-83
2022/10/18 15:12:27;;;;;;;5.95;3.90;;;;;;;18.59;42.10;101245.84;6619658;26;32385;-83
2022/10/18 15:15:48;;;;;;;6.55;3.50;;;;;;;18.50;42.59;101247.13;6616223;26;32640;-83
2022/10/18 15:19:13;;;;;;;5.70;4.03;;;;;;;18.28;43.18;101241.00;6634454;26;33635;-84
2022/10/18 15:22:22;;;;;;;4.50;3.60;;;;;;;18.04;45.14;101243.25;6634899;26;33903;-84
2022/10/18 15:25:34;;;;;;;4.47;3.75;;;;;;;17.78;45.81;101244.03;6635463;26;34541;-87
2022/10/18 15:28:51;;;;;;;7.80;3.42;;;;;;;17.58;46.24;101230.31;6642401;26;34547;-87
2022/10/18 15:31:54;;;;;;;8.05;4.00;;;;;;;17.42;48.19;101228.75;6649681;26;34422;-84
2022/10/18 15:35:16;;;;;;;10.07;4.28;;;;;;;17.29;46.54;101233.31;6649096;26;33796;-83
2022/10/18 15:38:30;;;;;;;6.65;3.80;;;;;;;17.17;49.25;101233.87;6637170;26;35461;-83
2022/10/18 15:41:41;;;;;;;7.13;4.10;;;;;;;17.01;49.49;101231.47;6614909;26;32839;-85
2022/10/18 15:44:50;;;;;;;5.50;3.78;;;;;;;16.86;50.68;101230.75;6635645;26;33848;-85
2022/10/18 15:48:00;;;;;;;6.47;3.83;;;;;;;16.73;50.55;101234.16;6636870;26;33929;-86
2022/10/18 15:51:27;;;;;;;8.00;3.83;;;;;;;16.58;53.00;101227.97;6634701;26;34553;-86
2022/10/18 15:54:29;;;;;;;8.85;4.40;;;;;;;16.39;54.40;101226.78;6604066;26;33232;-86
